Berlin Center, Ohio
Current Conditions -  °F | °C
As of 2:57 PM on Saturday 25 Oct 2014 (Local Time) from KPOV Reporting Station
Scattered Clouds Scattered Clouds  
Wind Chill: 67°   Ceiling: Unl
Heat Index: 67°   Visibility: 10mi
Dew Point: 48°   Wind: 18mph
Humidity: 50%   Direction: 260°W
Pressure: 29.77"   Gusts: 23mph
Location:  41.02°N, 80.95°W
Report Text: KPOV 251857Z AUTO 26016G20KT 10SM SCT035 20/09 A2977 RMK AO2 T01970089
Loading
Personal Weather Stations






























Interactive Weather Map
Tropical Storm Tracking
New forecast layout! Learn more

10-Day Weather Forecast

Advertisements
Track Severe Weather on mobile